RYR4SV GCFV-LEMD
Flight info
| Callsign | RYR4SV |
|---|---|
| Flight time | N/A |
| Altitude | 36000 |
| Route | VASTO UN858 AKUDA DCT PESAS N858 PARKA Z165 SOTUK |
| Aircraft | B738/M-SDFGILRWY/SB1 |
Departure
| Time | 2026-04-28 10:55 |
|---|---|
| Airport | Fuerteventura Airport (GCFV) |
Arrival
| Time | N/A |
|---|---|
| Airport | Adolfo Suárez Madrid–Barajas Airport (LEMD) |
| Time | Latitude | Longitude | Altitude | Speed | Heading |
|---|---|---|---|---|---|
| 2026-04-28 10:33 | 28.45382 | -13.86827 | 33 ft | 0 kts | 271° |
| 2026-04-28 10:46 | 28.45381 | -13.86824 | 33 ft | 2 kts | 271° |
| 2026-04-28 10:46 | 28.45381 | -13.86807 | 33 ft | 2 kts | 271° |
| 2026-04-28 10:46 | 28.45381 | -13.86790 | 33 ft | 2 kts | 271° |
| 2026-04-28 10:46 | 28.45380 | -13.86773 | 33 ft | 2 kts | 271° |
| 2026-04-28 10:47 | 28.45380 | -13.86762 | 33 ft | 2 kts | 271° |
| 2026-04-28 10:47 | 28.45384 | -13.86745 | 33 ft | 2 kts | 232° |
| 2026-04-28 10:47 | 28.45396 | -13.86734 | 33 ft | 2 kts | 200° |
| 2026-04-28 10:47 | 28.45405 | -13.86731 | 33 ft | 1 kts | 182° |
| 2026-04-28 10:48 | 28.45412 | -13.86732 | 33 ft | 0 kts | 181° |
| 2026-04-28 10:49 | 28.45411 | -13.86732 | 33 ft | 0 kts | 181° |
| 2026-04-28 10:49 | 28.45385 | -13.86732 | 33 ft | 7 kts | 181° |
| 2026-04-28 10:50 | 28.45309 | -13.86735 | 33 ft | 14 kts | 181° |
| 2026-04-28 10:50 | 28.45231 | -13.86739 | 33 ft | 18 kts | 182° |
| 2026-04-28 10:50 | 28.45014 | -13.86745 | 33 ft | 27 kts | 181° |
| 2026-04-28 10:50 | 28.44820 | -13.86752 | 33 ft | 27 kts | 182° |
| 2026-04-28 10:51 | 28.44632 | -13.86758 | 33 ft | 26 kts | 181° |
| 2026-04-28 10:51 | 28.44445 | -13.86764 | 33 ft | 25 kts | 182° |
| 2026-04-28 10:51 | 28.44268 | -13.86770 | 33 ft | 25 kts | 181° |
| 2026-04-28 10:51 | 28.44109 | -13.86775 | 33 ft | 16 kts | 182° |
| 2026-04-28 10:52 | 28.44060 | -13.86723 | 32 ft | 12 kts | 92° |
| 2026-04-28 10:52 | 28.44044 | -13.86627 | 32 ft | 13 kts | 135° |
| 2026-04-28 10:52 | 28.43941 | -13.86613 | 32 ft | 17 kts | 181° |
| 2026-04-28 10:52 | 28.43806 | -13.86618 | 32 ft | 21 kts | 181° |
| 2026-04-28 10:53 | 28.43635 | -13.86624 | 32 ft | 27 kts | 182° |
| 2026-04-28 10:53 | 28.43431 | -13.86630 | 32 ft | 27 kts | 181° |
| 2026-04-28 10:53 | 28.43319 | -13.86619 | 32 ft | 12 kts | 137° |
| 2026-04-28 10:53 | 28.43303 | -13.86508 | 32 ft | 13 kts | 91° |
| 2026-04-28 10:54 | 28.43326 | -13.86442 | 32 ft | 9 kts | 13° |
| 2026-04-28 10:54 | 28.43344 | -13.86440 | 32 ft | 0 kts | 2° |
| 2026-04-28 10:54 | 28.43348 | -13.86440 | 32 ft | 4 kts | 2° |
| 2026-04-28 10:54 | 28.43606 | -13.86432 | 32 ft | 72 kts | 1° |
| 2026-04-28 10:55 | 28.44326 | -13.86408 | 33 ft | 132 kts | 1° |
| 2026-04-28 10:55 | 28.45429 | -13.86368 | 135 ft | 170 kts | 2° |
| 2026-04-28 10:55 | 28.46591 | -13.86317 | 868 ft | 166 kts | 0° |
| 2026-04-28 10:55 | 28.47742 | -13.85989 | 1390 ft | 179 kts | 33° |
| 2026-04-28 10:56 | 28.48533 | -13.84808 | 1854 ft | 196 kts | 64° |
| 2026-04-28 10:56 | 28.49240 | -13.83433 | 2190 ft | 211 kts | 39° |
| 2026-04-28 10:56 | 28.50584 | -13.82718 | 2670 ft | 218 kts | 12° |
| 2026-04-28 10:56 | 28.52110 | -13.82310 | 3159 ft | 230 kts | 15° |
| 2026-04-28 10:57 | 28.53685 | -13.81659 | 3545 ft | 247 kts | 22° |
| 2026-04-28 10:57 | 28.55305 | -13.80801 | 4125 ft | 256 kts | 25° |
| 2026-04-28 10:57 | 28.56922 | -13.79894 | 4782 ft | 260 kts | 25° |
| 2026-04-28 10:57 | 28.58544 | -13.78997 | 5468 ft | 262 kts | 25° |
| 2026-04-28 10:58 | 28.60188 | -13.78101 | 6183 ft | 264 kts | 24° |
| 2026-04-28 10:58 | 28.61849 | -13.77202 | 6850 ft | 268 kts | 24° |
| 2026-04-28 10:58 | 28.63568 | -13.76275 | 7543 ft | 272 kts | 24° |
| 2026-04-28 10:58 | 28.65285 | -13.75350 | 8198 ft | 277 kts | 23° |
| 2026-04-28 10:59 | 28.67025 | -13.74412 | 8880 ft | 281 kts | 23° |
| 2026-04-28 10:59 | 28.68795 | -13.73458 | 9554 ft | 285 kts | 23° |
| 2026-04-28 10:59 | 28.70595 | -13.72511 | 10263 ft | 288 kts | 22° |
| 2026-04-28 10:59 | 28.72486 | -13.71548 | 10696 ft | 303 kts | 21° |
| 2026-04-28 11:00 | 28.74453 | -13.70557 | 11099 ft | 317 kts | 21° |
| 2026-04-28 11:00 | 28.76508 | -13.69520 | 11515 ft | 332 kts | 22° |
| 2026-04-28 11:00 | 28.78645 | -13.68434 | 12158 ft | 338 kts | 22° |
| 2026-04-28 11:00 | 28.80797 | -13.67336 | 12847 ft | 342 kts | 21° |
| 2026-04-28 11:01 | 28.82979 | -13.66220 | 13544 ft | 347 kts | 21° |
| 2026-04-28 11:01 | 28.85185 | -13.65091 | 14252 ft | 352 kts | 21° |
| 2026-04-28 11:01 | 28.87450 | -13.63932 | 15016 ft | 355 kts | 21° |
| 2026-04-28 11:01 | 28.89704 | -13.62777 | 15730 ft | 359 kts | 21° |
| 2026-04-28 11:02 | 28.92013 | -13.61658 | 16441 ft | 362 kts | 17° |
| 2026-04-28 11:02 | 28.94471 | -13.60918 | 17097 ft | 363 kts | 4° |
| 2026-04-28 11:02 | 28.96949 | -13.61021 | 17817 ft | 360 kts | 347° |
| 2026-04-28 11:02 | 28.99375 | -13.61783 | 18506 ft | 360 kts | 339° |
| 2026-04-28 11:03 | 29.01730 | -13.62705 | 19117 ft | 364 kts | 338° |
| 2026-04-28 11:03 | 29.04141 | -13.63685 | 19773 ft | 366 kts | 337° |
| 2026-04-28 11:03 | 29.06549 | -13.64662 | 20422 ft | 369 kts | 337° |
| 2026-04-28 11:03 | 29.08981 | -13.65637 | 20997 ft | 373 kts | 337° |
| 2026-04-28 11:04 | 29.11427 | -13.66611 | 21616 ft | 375 kts | 337° |
| 2026-04-28 11:04 | 29.13890 | -13.67588 | 22193 ft | 377 kts | 337° |
| 2026-04-28 11:04 | 29.16398 | -13.68579 | 22807 ft | 379 kts | 337° |
| 2026-04-28 11:04 | 29.18893 | -13.69564 | 23338 ft | 382 kts | 337° |
| 2026-04-28 11:05 | 29.21403 | -13.70555 | 23864 ft | 385 kts | 337° |
| 2026-04-28 11:05 | 29.23938 | -13.71552 | 24390 ft | 388 kts | 337° |
| 2026-04-28 11:05 | 29.26500 | -13.72558 | 24913 ft | 391 kts | 337° |
| 2026-04-28 11:05 | 29.29073 | -13.73567 | 25445 ft | 392 kts | 337° |
| 2026-04-28 11:06 | 29.31692 | -13.74564 | 25920 ft | 397 kts | 339° |
| 2026-04-28 11:06 | 29.34381 | -13.75341 | 26349 ft | 403 kts | 346° |
| 2026-04-28 11:06 | 29.37220 | -13.75633 | 26820 ft | 411 kts | 355° |
| 2026-04-28 11:06 | 29.40092 | -13.75462 | 27292 ft | 416 kts | 0° |
| 2026-04-28 11:07 | 29.42978 | -13.75078 | 27730 ft | 420 kts | 3° |
| 2026-04-28 11:07 | 29.45870 | -13.74599 | 28174 ft | 422 kts | 4° |
| 2026-04-28 11:07 | 29.48780 | -13.74083 | 28598 ft | 425 kts | 4° |
| 2026-04-28 11:07 | 29.51718 | -13.73559 | 28975 ft | 428 kts | 4° |
| 2026-04-28 11:08 | 29.54662 | -13.73043 | 29383 ft | 430 kts | 4° |
| 2026-04-28 11:08 | 29.57651 | -13.72529 | 29784 ft | 432 kts | 3° |
| 2026-04-28 11:08 | 29.60623 | -13.72028 | 30166 ft | 435 kts | 3° |
| 2026-04-28 11:08 | 29.63612 | -13.71530 | 30783 ft | 431 kts | 3° |
| 2026-04-28 11:09 | 29.66585 | -13.71037 | 31362 ft | 428 kts | 3° |
| 2026-04-28 11:09 | 29.69521 | -13.70554 | 31858 ft | 427 kts | 3° |
| 2026-04-28 11:09 | 29.72452 | -13.70076 | 32317 ft | 426 kts | 2° |
| 2026-04-28 11:09 | 29.75372 | -13.69599 | 32794 ft | 424 kts | 2° |
| 2026-04-28 11:10 | 29.78307 | -13.69123 | 33235 ft | 423 kts | 2° |
| 2026-04-28 11:10 | 29.81217 | -13.68652 | 33664 ft | 422 kts | 2° |
| 2026-04-28 11:10 | 29.84122 | -13.68182 | 34125 ft | 420 kts | 2° |
| 2026-04-28 11:10 | 29.87004 | -13.67715 | 34518 ft | 419 kts | 2° |
| 2026-04-28 11:11 | 29.89906 | -13.67245 | 34867 ft | 419 kts | 2° |
| 2026-04-28 11:11 | 29.92778 | -13.66780 | 35221 ft | 419 kts | 2° |
| 2026-04-28 11:11 | 29.95653 | -13.66314 | 35592 ft | 418 kts | 2° |
| 2026-04-28 11:11 | 29.98556 | -13.65842 | 35932 ft | 417 kts | 2° |
| 2026-04-28 11:12 | 30.01469 | -13.65369 | 36024 ft | 420 kts | 2° |
| 2026-04-28 11:12 | 30.07240 | -13.64430 | 36027 ft | 414 kts | 2° |
| 2026-04-28 11:13 | 30.13010 | -13.63490 | 36021 ft | 414 kts | 2° |
| 2026-04-28 11:13 | 30.18745 | -13.62556 | 36018 ft | 415 kts | 2° |
| 2026-04-28 11:14 | 30.24470 | -13.61621 | 36021 ft | 414 kts | 2° |
| 2026-04-28 11:14 | 30.30198 | -13.60685 | 36020 ft | 415 kts | 2° |
| 2026-04-28 11:15 | 30.35916 | -13.59750 | 36022 ft | 414 kts | 2° |
| 2026-04-28 11:15 | 30.41591 | -13.58818 | 36024 ft | 413 kts | 2° |
| 2026-04-28 11:16 | 30.47295 | -13.57840 | 36018 ft | 414 kts | 5° |
| 2026-04-28 11:16 | 30.52795 | -13.55734 | 36020 ft | 425 kts | 22° |
| 2026-04-28 11:17 | 30.57897 | -13.52077 | 36020 ft | 430 kts | 28° |
| 2026-04-28 11:17 | 30.62806 | -13.48099 | 36020 ft | 432 kts | 30° |
| 2026-04-28 11:18 | 30.67721 | -13.44073 | 36015 ft | 431 kts | 29° |
| 2026-04-28 11:18 | 30.72625 | -13.40093 | 36016 ft | 430 kts | 29° |
| 2026-04-28 11:19 | 30.77571 | -13.36111 | 36014 ft | 429 kts | 29° |
| 2026-04-28 11:19 | 30.82494 | -13.32161 | 36016 ft | 430 kts | 29° |
| 2026-04-28 11:20 | 30.87402 | -13.28226 | 36014 ft | 431 kts | 29° |
| 2026-04-28 11:20 | 30.92338 | -13.24266 | 36007 ft | 430 kts | 29° |
| 2026-04-28 11:21 | 30.97306 | -13.20306 | 36005 ft | 430 kts | 29° |
| 2026-04-28 11:21 | 31.02222 | -13.16405 | 36010 ft | 431 kts | 29° |
| 2026-04-28 11:22 | 31.07187 | -13.12460 | 36008 ft | 429 kts | 29° |
| 2026-04-28 11:22 | 31.12135 | -13.08519 | 36009 ft | 430 kts | 29° |
| 2026-04-28 11:23 | 31.17077 | -13.04579 | 36009 ft | 430 kts | 29° |
| 2026-04-28 11:23 | 31.22018 | -13.00631 | 36005 ft | 429 kts | 29° |
| 2026-04-28 11:24 | 31.26962 | -12.96675 | 36011 ft | 428 kts | 29° |
| 2026-04-28 11:24 | 31.31870 | -12.92742 | 36005 ft | 427 kts | 29° |
| 2026-04-28 11:25 | 31.36756 | -12.88825 | 36005 ft | 428 kts | 29° |
| 2026-04-28 11:25 | 31.41686 | -12.84865 | 36004 ft | 427 kts | 29° |
| 2026-04-28 11:26 | 31.46576 | -12.80932 | 36000 ft | 428 kts | 29° |
| 2026-04-28 11:26 | 31.51500 | -12.76969 | 36007 ft | 426 kts | 29° |
| 2026-04-28 11:27 | 31.56357 | -12.73051 | 36010 ft | 427 kts | 29° |
| 2026-04-28 11:27 | 31.61243 | -12.69106 | 36010 ft | 425 kts | 29° |
| 2026-04-28 11:28 | 31.66106 | -12.65175 | 36006 ft | 424 kts | 29° |
| 2026-04-28 11:28 | 31.70987 | -12.61226 | 36002 ft | 427 kts | 29° |
| 2026-04-28 11:29 | 31.75843 | -12.57289 | 36005 ft | 425 kts | 29° |
| 2026-04-28 11:29 | 31.80716 | -12.53335 | 36000 ft | 426 kts | 29° |
| 2026-04-28 11:30 | 31.85606 | -12.49362 | 36003 ft | 426 kts | 29° |
| 2026-04-28 11:30 | 31.92902 | -12.43422 | 36002 ft | 424 kts | 30° |
| 2026-04-28 11:31 | 31.97752 | -12.39469 | 35988 ft | 425 kts | 30° |
| 2026-04-28 11:31 | 32.02672 | -12.35466 | 35991 ft | 426 kts | 30° |
| 2026-04-28 11:32 | 32.07535 | -12.31508 | 35989 ft | 425 kts | 30° |
| 2026-04-28 11:32 | 32.12411 | -12.27535 | 35988 ft | 425 kts | 30° |
| 2026-04-28 11:33 | 32.17279 | -12.23562 | 35990 ft | 426 kts | 30° |
| 2026-04-28 11:33 | 32.22138 | -12.19590 | 35984 ft | 424 kts | 30° |
| 2026-04-28 11:34 | 32.27061 | -12.15562 | 35987 ft | 427 kts | 30° |
| 2026-04-28 11:34 | 32.31943 | -12.11560 | 35982 ft | 426 kts | 30° |
| 2026-04-28 11:35 | 32.36794 | -12.07578 | 35981 ft | 425 kts | 30° |
| 2026-04-28 11:35 | 32.41642 | -12.03593 | 35978 ft | 425 kts | 30° |
| 2026-04-28 11:36 | 32.46512 | -11.99589 | 35981 ft | 427 kts | 31° |
| 2026-04-28 11:36 | 32.51379 | -11.95578 | 35980 ft | 425 kts | 31° |
| 2026-04-28 11:37 | 32.56237 | -11.91570 | 35978 ft | 427 kts | 31° |
| 2026-04-28 11:37 | 32.61118 | -11.87538 | 35975 ft | 427 kts | 31° |
| 2026-04-28 11:38 | 32.65988 | -11.83508 | 35972 ft | 427 kts | 31° |
| 2026-04-28 11:38 | 32.70876 | -11.79459 | 35967 ft | 429 kts | 31° |
| 2026-04-28 11:39 | 32.75754 | -11.75412 | 35969 ft | 428 kts | 31° |
| 2026-04-28 11:39 | 32.80702 | -11.71303 | 35968 ft | 429 kts | 31° |
| 2026-04-28 11:40 | 32.85589 | -11.67238 | 35975 ft | 428 kts | 31° |
| 2026-04-28 11:40 | 32.90454 | -11.63186 | 35969 ft | 430 kts | 31° |
| 2026-04-28 11:41 | 32.95396 | -11.59073 | 35967 ft | 434 kts | 31° |
| 2026-04-28 11:41 | 33.00317 | -11.54963 | 35966 ft | 431 kts | 31° |
| 2026-04-28 11:42 | 33.05227 | -11.50858 | 35961 ft | 433 kts | 31° |
| 2026-04-28 11:42 | 33.10155 | -11.46731 | 35960 ft | 433 kts | 32° |
| 2026-04-28 11:43 | 33.15079 | -11.42601 | 35955 ft | 432 kts | 32° |
| 2026-04-28 11:43 | 33.19988 | -11.38472 | 35957 ft | 432 kts | 32° |
| 2026-04-28 11:44 | 33.24908 | -11.34307 | 35952 ft | 434 kts | 32° |
| 2026-04-28 11:44 | 33.29824 | -11.30132 | 35956 ft | 435 kts | 32° |
| 2026-04-28 11:45 | 33.34755 | -11.25939 | 35952 ft | 435 kts | 32° |
| 2026-04-28 11:45 | 33.39700 | -11.21729 | 35951 ft | 434 kts | 33° |
| 2026-04-28 11:46 | 33.44588 | -11.17555 | 35951 ft | 432 kts | 33° |
| 2026-04-28 11:46 | 33.49500 | -11.13359 | 35956 ft | 433 kts | 33° |
| 2026-04-28 11:47 | 33.54424 | -11.09149 | 35951 ft | 434 kts | 33° |
| 2026-04-28 11:47 | 33.59341 | -11.04940 | 35947 ft | 434 kts | 33° |
| 2026-04-28 11:48 | 33.64226 | -11.00752 | 35951 ft | 434 kts | 33° |
| 2026-04-28 11:48 | 33.69143 | -10.96533 | 35947 ft | 434 kts | 33° |
| 2026-04-28 11:49 | 33.74056 | -10.92310 | 35944 ft | 435 kts | 33° |
| 2026-04-28 11:49 | 33.78975 | -10.88076 | 35943 ft | 434 kts | 33° |
| 2026-04-28 11:50 | 33.83901 | -10.83830 | 35945 ft | 435 kts | 33° |
| 2026-04-28 11:50 | 33.88823 | -10.79582 | 35945 ft | 435 kts | 33° |
| 2026-04-28 11:51 | 33.93747 | -10.75326 | 35946 ft | 434 kts | 33° |
| 2026-04-28 11:51 | 33.98640 | -10.71089 | 35939 ft | 434 kts | 33° |
| 2026-04-28 11:52 | 34.03545 | -10.66837 | 35954 ft | 435 kts | 33° |
| 2026-04-28 11:52 | 34.08459 | -10.62571 | 35951 ft | 434 kts | 33° |
| 2026-04-28 11:53 | 34.13345 | -10.58323 | 35947 ft | 435 kts | 33° |
| 2026-04-28 11:53 | 34.18254 | -10.54048 | 35957 ft | 435 kts | 33° |
| 2026-04-28 11:54 | 34.23145 | -10.49784 | 35953 ft | 434 kts | 34° |
| 2026-04-28 11:54 | 34.28053 | -10.45499 | 35948 ft | 436 kts | 34° |
| 2026-04-28 11:55 | 34.32972 | -10.41197 | 35946 ft | 434 kts | 34° |
| 2026-04-28 11:55 | 34.37868 | -10.36907 | 35947 ft | 434 kts | 34° |
| 2026-04-28 11:56 | 34.42780 | -10.32599 | 35945 ft | 435 kts | 34° |
| 2026-04-28 11:56 | 34.47669 | -10.28305 | 35945 ft | 435 kts | 34° |
| 2026-04-28 11:57 | 34.52560 | -10.24003 | 35942 ft | 437 kts | 34° |
| 2026-04-28 11:57 | 34.57470 | -10.19678 | 35938 ft | 437 kts | 34° |
| 2026-04-28 11:58 | 34.62397 | -10.15331 | 35936 ft | 437 kts | 34° |
| 2026-04-28 11:58 | 34.67313 | -10.11005 | 35924 ft | 436 kts | 34° |
| 2026-04-28 11:59 | 34.72219 | -10.06693 | 35920 ft | 436 kts | 34° |
| 2026-04-28 11:59 | 34.77142 | -10.02361 | 35914 ft | 436 kts | 35° |
| 2026-04-28 12:00 | 34.82067 | -9.98020 | 35908 ft | 436 kts | 35° |
| 2026-04-28 12:00 | 34.86998 | -9.93666 | 35907 ft | 438 kts | 35° |
| 2026-04-28 12:01 | 34.91937 | -9.89297 | 35906 ft | 439 kts | 35° |
| 2026-04-28 12:01 | 34.96899 | -9.84901 | 35906 ft | 440 kts | 35° |
| 2026-04-28 12:02 | 35.01818 | -9.80536 | 35904 ft | 439 kts | 35° |
| 2026-04-28 12:02 | 35.06748 | -9.76153 | 35906 ft | 438 kts | 35° |
| 2026-04-28 12:03 | 35.11737 | -9.71713 | 35915 ft | 442 kts | 35° |
| 2026-04-28 12:03 | 35.16705 | -9.67284 | 35916 ft | 442 kts | 35° |
| 2026-04-28 12:04 | 35.21641 | -9.62877 | 35911 ft | 442 kts | 35° |
| 2026-04-28 12:04 | 35.26604 | -9.58439 | 35914 ft | 442 kts | 35° |
| 2026-04-28 12:05 | 35.31581 | -9.53982 | 35908 ft | 442 kts | 36° |
| 2026-04-28 12:05 | 35.36509 | -9.49560 | 35910 ft | 441 kts | 36° |
| 2026-04-28 12:06 | 35.41473 | -9.45101 | 35907 ft | 442 kts | 36° |
| 2026-04-28 12:06 | 35.46436 | -9.40635 | 35906 ft | 442 kts | 36° |
| 2026-04-28 12:07 | 35.51459 | -9.36108 | 35897 ft | 441 kts | 36° |
| 2026-04-28 12:07 | 35.56382 | -9.31665 | 35890 ft | 442 kts | 37° |
| 2026-04-28 12:08 | 35.61357 | -9.27168 | 35886 ft | 443 kts | 36° |
| 2026-04-28 12:08 | 35.66296 | -9.22696 | 35889 ft | 443 kts | 37° |
| 2026-04-28 12:09 | 35.71254 | -9.18199 | 35883 ft | 442 kts | 37° |